Time;durP1;ratioP1;P1;durP2;ratioP2;P2;SDS_P1;SDS_P2;PMS_P1;PMS_P2;Temp;Humidity;BMP_temperature;BMP_pressure;BME280_temperature;BME280_humidity;BME280_pressure;Samples;Min_cycle;Max_cycle;Signal;HPM_P1;HPM_P2
2022/08/09 00:02:07;;;;;;;0.57;0.57;;;;;;;24.62;28.27;101591.78;5074989;28;20541;-70
2022/08/09 00:04:32;;;;;;;0.50;0.50;;;;;;;24.64;28.22;101597.81;5055426;28;20025;-69
2022/08/09 00:06:58;;;;;;;0.50;0.50;;;;;;;24.65;28.05;101599.47;5055132;28;20028;-69
2022/08/09 00:09:24;;;;;;;0.68;0.68;;;;;;;24.62;28.02;101599.97;5055107;28;20108;-69
2022/08/09 00:11:49;;;;;;;0.60;0.60;;;;;;;24.62;28.13;101597.25;5055409;28;20078;-69
2022/08/09 00:14:15;;;;;;;0.60;0.60;;;;;;;24.65;27.74;101603.03;5055232;28;20467;-69
2022/08/09 00:16:40;;;;;;;0.40;0.40;;;;;;;24.61;27.59;101598.31;5055246;28;20455;-69
2022/08/09 00:19:06;;;;;;;0.60;0.60;;;;;;;24.63;27.81;101605.19;5055482;28;20132;-69
2022/08/09 00:21:31;;;;;;;0.73;0.70;;;;;;;24.61;27.82;101599.16;5055307;28;20021;-69
2022/08/09 00:23:57;;;;;;;0.50;0.50;;;;;;;24.61;27.73;101598.31;5054017;28;20521;-70
2022/08/09 00:26:24;;;;;;;0.60;0.60;;;;;;;24.61;27.53;101601.03;5054871;28;20139;-69
2022/08/09 00:28:50;;;;;;;0.60;0.60;;;;;;;24.65;27.64;101602.22;5055119;28;20104;-69
2022/08/09 00:31:15;;;;;;;0.35;0.35;;;;;;;24.62;27.59;101608.19;5054774;28;20505;-70
2022/08/09 00:33:42;;;;;;;0.63;0.60;;;;;;;24.63;27.66;101601.59;5054598;28;20045;-69
2022/08/09 00:36:07;;;;;;;0.57;0.57;;;;;;;24.62;27.60;101608.19;5054903;28;20040;-69
2022/08/09 00:38:33;;;;;;;0.70;0.70;;;;;;;24.63;27.48;101610.66;5054804;28;20017;-70
2022/08/09 00:40:58;;;;;;;0.55;0.55;;;;;;;24.58;27.77;101596.91;5054593;28;20040;-69
2022/08/09 00:43:24;;;;;;;0.47;0.40;;;;;;;24.64;27.60;101606.00;5054736;28;20029;-69
2022/08/09 00:45:49;;;;;;;0.57;0.57;;;;;;;24.64;27.62;101612.28;5054742;28;20029;-70
2022/08/09 00:48:15;;;;;;;0.60;0.60;;;;;;;24.65;27.48;101618.59;5054717;28;20406;-69
2022/08/09 00:50:40;;;;;;;0.50;0.50;;;;;;;24.65;27.63;101613.97;5054712;28;20098;-69
2022/08/09 00:53:06;;;;;;;0.57;0.57;;;;;;;24.67;27.31;101616.44;5054565;28;20056;-69
2022/08/09 00:55:31;;;;;;;0.57;0.50;;;;;;;24.64;27.58;101616.94;5054566;28;20383;-69
2022/08/09 00:57:57;;;;;;;0.50;0.50;;;;;;;24.64;27.28;101622.41;5054476;28;20422;-69
2022/08/09 01:00:22;;;;;;;0.50;0.50;;;;;;;24.63;27.52;101623.47;5054457;28;20380;-69
2022/08/09 01:03:16;;;;;;;0.50;0.50;;;;;;;24.64;27.49;101625.13;5059236;28;20451;-69
2022/08/09 01:05:44;;;;;;;0.50;0.50;;;;;;;24.65;27.37;101629.53;5073394;28;20029;-69
2022/08/09 01:08:33;;;;;;;0.60;0.60;;;;;;;24.68;27.70;101627.13;5073909;28;20032;-69
2022/08/09 01:11:02;;;;;;;0.50;0.50;;;;;;;24.64;27.42;101625.13;5072954;28;20048;-69
2022/08/09 01:13:33;;;;;;;0.70;0.70;;;;;;;24.63;27.22;101626.22;5074181;28;20031;-69
2022/08/09 01:15:58;;;;;;;0.60;0.60;;;;;;;24.62;27.09;101621.84;5073732;28;20020;-70
2022/08/09 01:18:28;;;;;;;0.50;0.50;;;;;;;24.65;27.38;101629.53;5056002;28;20098;-70
2022/08/09 01:21:14;;;;;;;0.50;0.50;;;;;;;24.63;27.34;101632.53;5072543;28;20032;-70
2022/08/09 01:24:01;;;;;;;0.60;0.60;;;;;;;24.68;27.29;101639.94;5073933;28;20134;-70
2022/08/09 01:26:52;;;;;;;0.73;0.70;;;;;;;24.62;26.95;101630.03;5072734;28;20135;-70
2022/08/09 01:29:18;;;;;;;0.70;0.68;;;;;;;24.65;27.23;101635.00;5072611;28;20098;-70
2022/08/09 01:31:44;;;;;;;0.50;0.50;;;;;;;24.65;27.26;101635.00;5072192;28;20094;-70
2022/08/09 01:34:11;;;;;;;0.63;0.63;;;;;;;24.64;27.08;101633.34;5072195;28;20021;-70
2022/08/09 01:36:36;;;;;;;0.50;0.50;;;;;;;24.63;26.87;101634.41;5056078;28;20036;-70
2022/08/09 01:39:02;;;;;;;0.45;0.45;;;;;;;24.64;26.88;101633.34;5072506;28;20031;-70
2022/08/09 01:41:28;;;;;;;0.52;0.50;;;;;;;24.60;27.02;101632.19;5073684;28;20033;-70
2022/08/09 01:43:55;;;;;;;0.50;0.50;;;;;;;24.62;26.83;101638.25;5072535;28;20024;-70
2022/08/09 01:46:30;;;;;;;0.50;0.50;;;;;;;24.64;27.09;101636.88;5055628;28;20382;-71
2022/08/09 01:48:58;;;;;;;0.40;0.40;;;;;;;24.65;27.06;101635.00;5072248;28;20031;-70
2022/08/09 01:51:24;;;;;;;0.60;0.60;;;;;;;24.61;26.91;101633.84;5073279;28;20041;-70
2022/08/09 01:53:50;;;;;;;0.60;0.57;;;;;;;24.62;27.02;101630.84;5072379;28;20024;-69
2022/08/09 01:56:16;;;;;;;0.57;0.57;;;;;;;24.63;26.82;101634.41;5055429;28;20106;-69
2022/08/09 01:58:42;;;;;;;0.50;0.50;;;;;;;24.64;26.72;101638.81;5073237;28;20085;-69
2022/08/09 02:01:08;;;;;;;0.50;0.50;;;;;;;24.62;26.56;101636.31;5072234;28;20029;-69
2022/08/09 02:03:33;;;;;;;0.65;0.65;;;;;;;24.61;26.48;101633.84;5063021;28;20087;-69
2022/08/09 02:05:58;;;;;;;0.50;0.50;;;;;;;24.61;26.72;101636.56;5036187;28;20033;-70
2022/08/09 02:08:24;;;;;;;0.60;0.60;;;;;;;24.61;26.41;101639.31;5035749;28;20037;-69
2022/08/09 02:10:50;;;;;;;0.40;0.40;;;;;;;24.64;26.34;101638.81;5036043;28;20021;-70
2022/08/09 02:13:16;;;;;;;0.60;0.60;;;;;;;24.63;26.31;101640.72;5052545;28;20045;-69
2022/08/09 02:15:51;;;;;;;0.63;0.60;;;;;;;24.61;26.54;101640.16;5052131;28;20389;-69
2022/08/09 02:18:18;;;;;;;0.50;0.50;;;;;;;24.63;26.49;101642.59;5052076;28;20029;-69
2022/08/09 02:20:45;;;;;;;0.60;0.60;;;;;;;24.64;26.31;101641.53;5052166;28;20025;-70
2022/08/09 02:23:17;;;;;;;0.60;0.60;;;;;;;24.57;26.34;101643.63;5035998;28;20025;-70
2022/08/09 02:25:44;;;;;;;0.50;0.50;;;;;;;24.59;26.27;101636.00;5052095;28;20044;-69
2022/08/09 02:28:14;;;;;;;0.43;0.43;;;;;;;24.59;26.12;101636.00;5037662;28;20036;-70
2022/08/09 02:30:45;;;;;;;0.55;0.55;;;;;;;24.58;26.17;101635.19;5057497;28;20035;-70
2022/08/09 02:33:14;;;;;;;0.50;0.50;;;;;;;24.58;26.34;101635.19;5055984;28;20072;-70
2022/08/09 02:35:39;;;;;;;0.50;0.50;;;;;;;24.61;26.21;101639.31;5056182;28;20021;-70
2022/08/09 02:38:05;;;;;;;0.50;0.50;;;;;;;24.59;26.26;101639.56;5039422;28;20478;-69
2022/08/09 02:40:30;;;;;;;0.47;0.47;;;;;;;24.62;26.28;101636.31;5056053;28;20483;-69
2022/08/09 02:42:56;;;;;;;0.47;0.47;;;;;;;24.59;25.96;101642.28;5056064;28;20486;-69
2022/08/09 02:45:41;;;;;;;0.60;0.60;;;;;;;24.63;26.50;101638.00;5039436;28;20021;-69
2022/08/09 02:48:08;;;;;;;0.90;0.50;;;;;;;24.61;26.22;101640.16;5056791;28;20028;-69
2022/08/09 02:50:36;;;;;;;0.43;0.43;;;;;;;24.58;25.81;101639.81;5055537;28;20025;-69
2022/08/09 02:53:04;;;;;;;0.70;0.70;;;;;;;24.55;26.22;101644.69;5055852;28;20025;-69
2022/08/09 02:55:29;;;;;;;0.60;0.60;;;;;;;24.59;26.08;101636.81;5055499;28;20083;-69
2022/08/09 02:57:55;;;;;;;0.55;0.55;;;;;;;24.59;26.27;101644.19;5056595;28;20017;-69
2022/08/09 03:00:20;;;;;;;0.70;0.70;;;;;;;24.61;25.95;101642.03;5039129;28;20463;-69
2022/08/09 03:02:47;;;;;;;0.57;0.57;;;;;;;24.62;25.93;101647.25;5042231;28;20458;-69
2022/08/09 03:05:13;;;;;;;0.47;0.47;;;;;;;24.64;26.07;101644.28;5076890;28;20021;-69
2022/08/09 03:07:38;;;;;;;0.70;0.70;;;;;;;24.64;26.42;101644.28;5075218;28;20040;-69
2022/08/09 03:10:04;;;;;;;0.50;0.40;;;;;;;24.61;26.21;101639.31;5075270;28;20024;-69
2022/08/09 03:12:29;;;;;;;1.85;0.63;;;;;;;24.63;26.64;101648.06;5058421;28;20077;-69
2022/08/09 03:14:55;;;;;;;0.55;0.55;;;;;;;24.63;26.85;101648.06;5075379;28;20029;-69
2022/08/09 03:17:21;;;;;;;0.50;0.50;;;;;;;24.56;26.35;101645.53;5076467;28;20017;-69
2022/08/09 03:19:46;;;;;;;1.20;0.50;;;;;;;24.61;26.42;101645.63;5075307;28;20020;-69
2022/08/09 03:22:12;;;;;;;0.70;0.60;;;;;;;24.61;26.59;101647.50;5075204;28;20447;-69
2022/08/09 03:24:37;;;;;;;0.60;0.60;;;;;;;24.60;26.49;101654.06;5058496;28;20020;-69
2022/08/09 03:27:04;;;;;;;0.50;0.50;;;;;;;24.63;26.62;101653.53;5075171;28;20055;-69
2022/08/09 03:29:29;;;;;;;0.40;0.40;;;;;;;24.66;26.39;101653.03;5075625;28;20024;-71
2022/08/09 03:31:54;;;;;;;0.50;0.50;;;;;;;24.65;26.40;101656.88;5074686;28;20402;-69
2022/08/09 03:34:20;;;;;;;0.50;0.50;;;;;;;24.69;26.91;101660.75;5076289;28;20382;-69
2022/08/09 03:36:45;;;;;;;0.75;0.50;;;;;;;24.69;26.60;101664.28;5076040;28;20459;-69
2022/08/09 03:39:11;;;;;;;0.50;0.50;;;;;;;24.70;26.89;101659.69;5057912;28;20029;-69
2022/08/09 03:41:36;;;;;;;0.70;0.70;;;;;;;24.70;26.88;101660.50;5076069;28;20024;-69
2022/08/09 03:44:02;;;;;;;0.40;0.40;;;;;;;24.70;26.84;101657.75;5076085;28;20491;-69
2022/08/09 03:46:27;;;;;;;0.50;0.50;;;;;;;24.69;26.76;101658.00;5075764;28;20372;-69
2022/08/09 03:48:55;;;;;;;0.40;0.40;;;;;;;24.70;26.75;101656.94;5076061;28;20032;-69
2022/08/09 03:51:21;;;;;;;1.95;0.60;;;;;;;24.69;27.25;101655.28;5074467;28;20502;-69
2022/08/09 03:53:46;;;;;;;0.60;0.60;;;;;;;24.71;26.89;101661.31;5058224;28;20067;-69
2022/08/09 03:56:11;;;;;;;0.50;0.50;;;;;;;24.71;26.98;101658.59;5076009;28;20025;-71
2022/08/09 03:58:37;;;;;;;0.50;0.50;;;;;;;24.71;27.25;101661.31;5058095;28;20340;-69
2022/08/09 04:01:02;;;;;;;0.43;0.43;;;;;;;24.71;26.93;101655.84;5074888;28;20025;-69
2022/08/09 04:03:28;;;;;;;0.50;0.50;;;;;;;24.68;27.21;101659.09;5067990;28;20029;-70
2022/08/09 04:05:53;;;;;;;0.50;0.50;;;;;;;24.69;27.26;101658.00;5054879;28;20029;-70
2022/08/09 04:08:19;;;;;;;1.15;0.55;;;;;;;24.69;27.33;101663.47;5055863;28;20376;-70
2022/08/09 04:10:44;;;;;;;0.57;0.57;;;;;;;24.66;27.55;101658.50;5056517;28;20029;-70
2022/08/09 04:13:10;;;;;;;0.70;0.70;;;;;;;24.68;27.52;101667.28;5039581;28;20317;-70
2022/08/09 04:15:36;;;;;;;0.40;0.40;;;;;;;24.69;27.45;101668.94;5064747;28;20048;-70
2022/08/09 04:18:02;;;;;;;0.60;0.60;;;;;;;24.66;27.54;101670.25;5061222;28;20029;-70
2022/08/09 04:20:28;;;;;;;0.70;0.60;;;;;;;24.66;27.55;101674.91;5060682;28;20081;-70
2022/08/09 04:22:53;;;;;;;0.55;0.55;;;;;;;24.65;27.75;101676.00;5061346;28;20502;-70
2022/08/09 04:25:19;;;;;;;0.50;0.50;;;;;;;24.66;27.83;101680.38;5060409;28;20025;-70
2022/08/09 04:27:44;;;;;;;0.50;0.50;;;;;;;24.69;28.19;101671.69;5060016;28;20037;-70
2022/08/09 04:30:11;;;;;;;0.55;0.55;;;;;;;24.65;28.41;101678.75;5059481;28;20021;-70
2022/08/09 04:32:37;;;;;;;0.52;0.50;;;;;;;24.61;28.64;101674.84;5055761;28;20149;-70
2022/08/09 04:35:07;;;;;;;0.50;0.50;;;;;;;24.65;28.33;101676.00;5055737;28;20109;-70
2022/08/09 04:37:32;;;;;;;0.60;0.60;;;;;;;24.69;28.32;101679.88;5055581;28;20017;-70
2022/08/09 04:39:58;;;;;;;0.50;0.50;;;;;;;24.65;28.38;101678.75;5055343;28;20025;-70
2022/08/09 04:42:28;;;;;;;0.60;0.60;;;;;;;24.69;28.52;101677.97;5054873;28;20029;-70
2022/08/09 04:44:54;;;;;;;0.77;0.68;;;;;;;24.68;28.74;101680.94;5053116;28;20025;-70
2022/08/09 04:47:19;;;;;;;0.50;0.50;;;;;;;24.71;28.92;101683.19;5054867;28;20033;-70
2022/08/09 04:49:45;;;;;;;0.63;0.60;;;;;;;24.70;28.72;101676.09;5053915;28;20393;-71
2022/08/09 04:52:10;;;;;;;0.93;0.70;;;;;;;24.68;29.13;101684.53;5054306;28;20036;-70
2022/08/09 04:54:36;;;;;;;1.67;0.50;;;;;;;24.71;29.04;101677.72;5054584;28;20025;-70
2022/08/09 04:57:01;;;;;;;0.60;0.60;;;;;;;24.66;29.51;101680.38;5053910;28;20025;-70
2022/08/09 04:59:27;;;;;;;2.03;0.68;;;;;;;24.69;29.26;101677.16;5054017;28;20033;-71
2022/08/09 05:01:52;;;;;;;0.70;0.60;;;;;;;24.66;29.91;101685.84;5053988;28;20025;-70
2022/08/09 05:04:18;;;;;;;0.80;0.52;;;;;;;24.61;29.89;101689.34;5068279;28;20021;-70
2022/08/09 05:06:43;;;;;;;0.50;0.50;;;;;;;24.61;30.00;101686.63;5072523;28;20020;-70
2022/08/09 05:09:08;;;;;;;0.50;0.50;;;;;;;24.65;30.48;101689.66;5073785;28;20031;-70
2022/08/09 05:11:34;;;;;;;0.63;0.63;;;;;;;24.65;30.53;101685.03;5074530;28;20028;-71
2022/08/09 05:13:59;;;;;;;1.17;0.80;;;;;;;24.66;30.72;101689.41;5074000;28;20380;-71
2022/08/09 05:16:25;;;;;;;0.55;0.55;;;;;;;24.63;30.74;101687.19;5074462;28;20020;-71
2022/08/09 05:18:50;;;;;;;4.00;0.70;;;;;;;24.66;30.76;101688.56;5074336;28;20458;-70
2022/08/09 05:21:16;;;;;;;1.13;0.80;;;;;;;24.63;31.05;101691.81;5074029;28;20020;-70
2022/08/09 05:23:42;;;;;;;0.90;0.68;;;;;;;24.68;30.71;101686.41;5055967;28;20077;-70
2022/08/09 05:26:07;;;;;;;0.85;0.80;;;;;;;24.60;30.94;101686.88;5072723;28;20024;-70
2022/08/09 05:28:33;;;;;;;2.50;0.70;;;;;;;24.57;31.39;101698.28;5073892;28;20035;-70
2022/08/09 05:30:58;;;;;;;0.70;0.70;;;;;;;24.60;31.06;101703.25;5074147;28;20024;-70
2022/08/09 05:33:24;;;;;;;1.30;1.02;;;;;;;24.61;31.64;101692.09;5072244;28;20469;-70
2022/08/09 05:35:49;;;;;;;2.92;0.90;;;;;;;24.55;31.66;101693.06;5073286;28;20031;-70
2022/08/09 05:38:15;;;;;;;2.55;0.70;;;;;;;24.61;31.71;101705.75;5072788;28;20344;-69
2022/08/09 05:40:41;;;;;;;2.00;0.60;;;;;;;24.57;31.78;101698.28;5073793;28;20067;-70
2022/08/09 05:43:07;;;;;;;1.00;0.88;;;;;;;24.58;32.06;101689.84;5073818;28;20028;-71
2022/08/09 05:45:32;;;;;;;0.73;0.60;;;;;;;24.57;32.39;101710.03;5073702;28;20028;-70
2022/08/09 05:47:58;;;;;;;7.43;0.73;;;;;;;24.67;32.10;101692.97;5074026;28;20398;-70
2022/08/09 05:50:27;;;;;;;0.60;0.60;;;;;;;24.63;32.28;101695.38;5074563;28;20047;-70
2022/08/09 05:52:52;;;;;;;0.60;0.60;;;;;;;24.67;32.01;101699.25;5074302;28;20029;-68
2022/08/09 05:55:18;;;;;;;4.68;0.68;;;;;;;24.73;32.19;101697.44;5074128;28;20029;-68
2022/08/09 05:57:43;;;;;;;4.53;1.02;;;;;;;24.70;32.12;101698.78;5074454;28;20481;-68
2022/08/09 06:00:09;;;;;;;4.45;0.82;;;;;;;24.72;31.95;101695.78;5074202;28;20033;-68
2022/08/09 06:02:35;;;;;;;2.08;0.63;;;;;;;24.69;31.83;101696.28;5073662;28;20462;-68
2022/08/09 06:05:01;;;;;;;2.03;0.80;;;;;;;24.70;31.67;101697.94;5055101;28;20024;-67
2022/08/09 06:07:28;;;;;;;0.63;0.63;;;;;;;24.73;31.76;101691.97;5053879;28;20025;-67
2022/08/09 06:09:53;;;;;;;1.13;0.73;;;;;;;24.69;31.39;101696.28;5054726;28;20024;-67
2022/08/09 06:12:19;;;;;;;1.27;0.60;;;;;;;24.72;31.04;101693.88;5052897;28;20025;-69
2022/08/09 06:14:44;;;;;;;0.70;0.70;;;;;;;24.63;30.98;101691.81;5054100;28;20417;-68
2022/08/09 06:17:10;;;;;;;0.80;0.70;;;;;;;24.67;31.29;101704.72;5054342;28;20029;-69
2022/08/09 06:19:36;;;;;;;0.50;0.50;;;;;;;24.74;30.76;101699.91;5053841;28;20447;-68
2022/08/09 06:22:01;;;;;;;0.50;0.50;;;;;;;24.77;30.65;101697.75;5054006;28;20065;-68
2022/08/09 06:24:27;;;;;;;0.50;0.50;;;;;;;24.67;31.14;101696.53;5052344;28;20470;-68
2022/08/09 06:26:52;;;;;;;0.75;0.70;;;;;;;24.66;31.22;101702.25;5052212;28;20095;-68
2022/08/09 06:29:18;;;;;;;0.95;0.50;;;;;;;24.71;30.92;101703.13;5053061;28;20032;-68
2022/08/09 06:31:45;;;;;;;1.42;0.50;;;;;;;24.74;30.97;101699.09;5052965;28;20470;-68
2022/08/09 06:34:10;;;;;;;2.83;0.73;;;;;;;24.72;30.74;101698.53;5053445;28;20131;-68
2022/08/09 06:36:36;;;;;;;0.73;0.60;;;;;;;24.72;30.74;101696.59;5052871;28;20455;-69
2022/08/09 06:39:01;;;;;;;0.68;0.55;;;;;;;24.72;31.01;101693.06;5053367;28;20029;-69
2022/08/09 06:41:27;;;;;;;0.52;0.52;;;;;;;24.77;30.71;101701.34;5053304;28;20115;-69
2022/08/09 06:43:52;;;;;;;1.00;0.60;;;;;;;24.73;30.66;101691.97;5053645;28;20455;-67
2022/08/09 06:46:18;;;;;;;1.98;0.60;;;;;;;24.74;30.84;101693.63;5053249;28;20025;-68
2022/08/09 06:48:43;;;;;;;3.08;0.80;;;;;;;24.73;31.02;101689.22;5053779;28;20025;-67
2022/08/09 06:51:09;;;;;;;0.60;0.60;;;;;;;24.74;30.97;101699.91;5053415;28;20029;-68
2022/08/09 06:53:35;;;;;;;0.65;0.63;;;;;;;24.69;30.61;101690.81;5053070;28;20394;-67
2022/08/09 06:56:01;;;;;;;0.70;0.70;;;;;;;24.69;30.66;101694.38;5052954;28;20052;-67
2022/08/09 06:58:27;;;;;;;4.07;0.73;;;;;;;24.74;30.62;101699.09;5052587;28;20032;-69
2022/08/09 07:00:53;;;;;;;1.65;0.82;;;;;;;24.72;30.72;101695.78;5052963;28;20034;-68
2022/08/09 07:03:18;;;;;;;0.73;0.70;;;;;;;24.76;30.35;101694.19;5056898;28;20025;-69
2022/08/09 07:05:44;;;;;;;1.20;0.55;;;;;;;24.72;30.81;101704.00;5072650;28;20451;-68
2022/08/09 07:08:09;;;;;;;0.70;0.70;;;;;;;24.77;30.40;101704.06;5070660;28;20036;-69
2022/08/09 07:10:35;;;;;;;0.50;0.50;;;;;;;24.76;30.50;101696.94;5072699;28;20032;-69
2022/08/09 07:13:00;;;;;;;0.88;0.60;;;;;;;24.80;30.26;101700.84;5073090;28;20379;-68
2022/08/09 07:15:26;;;;;;;0.80;0.80;;;;;;;24.85;30.12;101694.59;5075878;28;20090;-70
2022/08/09 07:17:51;;;;;;;0.93;0.60;;;;;;;24.79;30.01;101701.91;5077060;28;20039;-69
2022/08/09 07:20:17;;;;;;;0.82;0.60;;;;;;;24.80;29.79;101697.25;5076670;28;20382;-69
2022/08/09 07:22:43;;;;;;;1.17;0.60;;;;;;;24.83;29.67;101702.22;5076306;28;20382;-71
2022/08/09 07:25:09;;;;;;;0.60;0.57;;;;;;;24.80;29.90;101703.56;5076469;28;20025;-69
2022/08/09 07:27:34;;;;;;;4.28;0.60;;;;;;;24.88;29.46;101700.38;5076267;28;20036;-70
2022/08/09 07:30:00;;;;;;;1.25;0.88;;;;;;;24.82;29.81;101706.88;5080514;28;20055;-70
2022/08/09 07:32:26;;;;;;;1.33;0.70;;;;;;;24.87;28.94;101698.75;5075889;28;20405;-70
2022/08/09 07:34:52;;;;;;;1.73;0.57;;;;;;;24.87;29.14;101698.75;5076004;28;20040;-70
2022/08/09 07:37:17;;;;;;;0.70;0.60;;;;;;;25.01;29.38;101709.28;5075761;28;20442;-68
2022/08/09 07:39:46;;;;;;;0.52;0.50;;;;;;;24.95;29.57;101711.13;5074774;28;20029;-70
2022/08/09 07:42:12;;;;;;;0.65;0.65;;;;;;;24.83;29.73;101708.50;5074903;28;20356;-70
2022/08/09 07:44:38;;;;;;;0.70;0.70;;;;;;;24.85;29.41;101711.84;5074812;28;20021;-70
2022/08/09 07:47:03;;;;;;;0.55;0.52;;;;;;;24.85;29.66;101711.00;5076115;28;20454;-70
2022/08/09 07:49:29;;;;;;;0.98;0.52;;;;;;;24.82;29.49;101706.03;5075482;28;20074;-70
2022/08/09 07:51:54;;;;;;;1.17;0.77;;;;;;;24.80;29.69;101714.50;5076723;28;20029;-69
2022/08/09 07:54:19;;;;;;;1.08;0.65;;;;;;;24.85;29.47;101717.31;5075172;28;20475;-69
2022/08/09 07:56:45;;;;;;;0.50;0.50;;;;;;;24.85;29.35;101727.41;5075464;28;20021;-69
2022/08/09 07:59:11;;;;;;;0.60;0.60;;;;;;;24.86;29.51;101727.16;5074233;28;20031;-69
2022/08/09 08:01:36;;;;;;;2.10;0.60;;;;;;;24.90;29.13;101724.75;5075129;28;20036;-69
2022/08/09 08:04:02;;;;;;;0.75;0.60;;;;;;;24.93;29.34;101725.06;5066133;28;20032;-69
2022/08/09 08:06:27;;;;;;;1.70;0.77;;;;;;;24.94;28.82;101720.44;5054154;28;20021;-68
2022/08/09 08:08:53;;;;;;;0.75;0.60;;;;;;;24.94;29.10;101728.66;5055493;28;20043;-69
2022/08/09 08:11:18;;;;;;;0.60;0.55;;;;;;;24.99;29.09;101716.94;5059706;28;20029;-68
2022/08/09 08:13:44;;;;;;;0.80;0.70;;;;;;;24.93;29.00;101725.06;5055855;28;20025;-70
2022/08/09 08:16:09;;;;;;;0.70;0.60;;;;;;;25.00;28.62;101713.13;5055792;28;20024;-70
2022/08/09 08:18:35;;;;;;;0.63;0.57;;;;;;;24.96;28.89;101720.16;5055174;28;20459;-70
2022/08/09 08:21:00;;;;;;;0.50;0.50;;;;;;;24.94;28.87;101720.44;5055251;28;20040;-69
2022/08/09 08:23:26;;;;;;;1.55;0.60;;;;;;;25.05;28.52;101726.88;5055824;28;20025;-70
2022/08/09 08:25:51;;;;;;;0.70;0.60;;;;;;;25.02;28.54;101732.84;5055664;28;20471;-69
2022/08/09 08:28:17;;;;;;;0.60;0.57;;;;;;;24.98;28.61;101734.44;5056562;28;20021;-69
2022/08/09 08:30:43;;;;;;;0.50;0.50;;;;;;;24.93;28.64;101729.72;5057073;28;20025;-69
2022/08/09 08:33:08;;;;;;;0.60;0.50;;;;;;;24.97;28.68;101730.84;5059552;28;20479;-68
2022/08/09 08:35:34;;;;;;;0.63;0.57;;;;;;;24.92;28.77;101736.25;5056089;28;20048;-69
2022/08/09 08:38:00;;;;;;;0.88;0.80;;;;;;;24.96;28.47;101733.84;5054848;28;20021;-70
2022/08/09 08:40:25;;;;;;;0.85;0.75;;;;;;;24.97;28.20;101740.97;5059597;28;20025;-68
2022/08/09 08:42:52;;;;;;;0.82;0.70;;;;;;;24.96;28.54;101739.31;5058826;28;20146;-68
2022/08/09 08:45:17;;;;;;;0.60;0.52;;;;;;;24.91;28.51;101738.16;5053481;28;20025;-68
2022/08/09 08:47:43;;;;;;;1.58;0.50;;;;;;;25.00;28.59;101735.81;5036501;28;20029;-67
2022/08/09 08:50:13;;;;;;;0.60;0.60;;;;;;;25.01;28.15;101736.66;5054635;28;20104;-68
2022/08/09 08:52:38;;;;;;;0.70;0.70;;;;;;;25.00;28.51;101740.47;5054328;28;20070;-68
2022/08/09 08:55:04;;;;;;;0.63;0.60;;;;;;;24.94;28.42;101736.84;5054270;28;20033;-67
2022/08/09 08:57:30;;;;;;;0.70;0.60;;;;;;;25.04;28.30;101736.16;5054219;28;20049;-69
2022/08/09 08:59:55;;;;;;;0.63;0.60;;;;;;;25.06;28.49;101733.97;5054428;28;20021;-68
2022/08/09 09:02:25;;;;;;;0.60;0.60;;;;;;;25.07;28.42;101741.13;5054375;28;20033;-67
2022/08/09 09:04:51;;;;;;;1.65;0.75;;;;;;;25.07;28.23;101736.47;5069793;28;20021;-68
2022/08/09 09:07:17;;;;;;;0.60;0.60;;;;;;;25.01;28.31;101733.91;5074167;28;20044;-67
2022/08/09 09:09:46;;;;;;;0.88;0.55;;;;;;;24.99;27.76;101738.81;5056286;28;20020;-68
2022/08/09 09:12:14;;;;;;;0.73;0.73;;;;;;;25.00;27.65;101735.00;5072641;28;20048;-68
2022/08/09 09:14:39;;;;;;;1.00;0.57;;;;;;;25.03;28.21;101734.50;5072565;28;20517;-68
2022/08/09 09:17:05;;;;;;;2.15;0.50;;;;;;;25.04;28.19;101733.41;5055806;28;20041;-68
2022/08/09 09:19:30;;;;;;;0.50;0.50;;;;;;;25.00;28.87;101718.59;5074376;28;20119;-68
2022/08/09 09:22:06;;;;;;;0.70;0.70;;;;;;;24.99;28.58;101727.88;5073998;28;20025;-68
2022/08/09 09:24:36;;;;;;;0.70;0.70;;;;;;;25.00;28.28;101726.81;5073668;28;20032;-67
2022/08/09 09:27:02;;;;;;;1.65;0.70;;;;;;;25.01;28.88;101731.19;5074070;28;20111;-68
2022/08/09 09:29:32;;;;;;;1.30;0.93;;;;;;;25.02;28.72;101732.84;5074900;28;20025;-68
2022/08/09 09:31:58;;;;;;;1.27;1.00;;;;;;;25.08;28.82;101732.66;5073487;28;20394;-68
2022/08/09 09:34:23;;;;;;;1.70;1.10;;;;;;;25.06;28.69;101728.50;5072319;28;20035;-67
2022/08/09 09:36:49;;;;;;;1.08;0.98;;;;;;;25.06;28.79;101725.78;5072785;28;20459;-68
2022/08/09 09:39:17;;;;;;;2.40;1.13;;;;;;;25.08;28.59;101731.84;5072438;28;20044;-69
2022/08/09 09:41:42;;;;;;;1.10;0.90;;;;;;;25.05;28.61;101727.69;5073338;28;20048;-67
2022/08/09 09:44:08;;;;;;;3.92;1.08;;;;;;;25.11;28.70;101729.44;5073912;28;20478;-68
2022/08/09 09:46:37;;;;;;;2.30;1.27;;;;;;;25.08;28.76;101727.19;5073519;28;20482;-68
2022/08/09 09:49:09;;;;;;;2.03;1.02;;;;;;;25.05;28.33;101722.22;5073216;28;20387;-68
2022/08/09 09:51:35;;;;;;;2.60;1.60;;;;;;;25.15;28.35;101716.06;5073412;28;20138;-69
2022/08/09 09:54:11;;;;;;;1.92;1.40;;;;;;;25.15;28.01;101726.16;5074031;28;20048;-69
2022/08/09 09:56:39;;;;;;;2.30;1.25;;;;;;;25.13;28.27;101723.72;5072876;28;20025;-68
2022/08/09 09:59:08;;;;;;;1.77;1.00;;;;;;;25.16;28.22;101723.19;5072002;28;20029;-69
2022/08/09 10:01:34;;;;;;;3.17;1.02;;;;;;;25.19;28.14;101721.88;5073063;28;20020;-69
2022/08/09 10:04:00;;;;;;;1.35;0.95;;;;;;;25.17;28.00;101722.13;5066140;28;20021;-69
2022/08/09 10:06:37;;;;;;;1.20;0.90;;;;;;;25.12;28.16;101716.56;5053130;28;20047;-68
2022/08/09 10:09:03;;;;;;;1.25;0.70;;;;;;;25.15;28.00;101716.06;5053343;28;20035;-68
2022/08/09 10:11:29;;;;;;;2.33;0.85;;;;;;;25.13;27.97;101718.25;5052029;28;20033;-69
2022/08/09 10:13:55;;;;;;;1.13;0.93;;;;;;;25.18;27.62;101710.09;5052810;28;20078;-69
2022/08/09 10:16:35;;;;;;;0.70;0.63;;;;;;;25.20;27.59;101718.03;5052699;28;20029;-69
2022/08/09 10:19:03;;;;;;;1.55;0.80;;;;;;;25.21;27.75;101714.22;5052704;28;20029;-69
2022/08/09 10:21:28;;;;;;;1.55;1.10;;;;;;;25.12;27.83;101711.09;5053179;28;20025;-69
2022/08/09 10:23:55;;;;;;;3.10;1.60;;;;;;;25.16;27.83;101711.41;5035375;28;20098;-69
2022/08/09 10:26:21;;;;;;;3.88;1.65;;;;;;;25.22;27.86;101711.25;5052901;28;20025;-69
2022/08/09 10:28:46;;;;;;;5.05;2.17;;;;;;;25.23;27.55;101707.44;5052606;28;20053;-69
2022/08/09 10:31:12;;;;;;;4.10;1.42;;;;;;;25.19;27.28;101709.00;5052862;28;20033;-69
2022/08/09 10:33:38;;;;;;;3.40;1.60;;;;;;;25.14;27.53;101714.41;5053014;28;20045;-69
2022/08/09 10:36:04;;;;;;;4.40;1.85;;;;;;;25.18;27.63;101715.56;5052929;28;20036;-69
2022/08/09 10:38:30;;;;;;;3.30;1.33;;;;;;;25.19;27.02;101702.72;5052980;28;20024;-68
2022/08/09 10:40:55;;;;;;;1.98;1.27;;;;;;;25.23;27.28;101699.22;5053104;28;20024;-68
2022/08/09 10:43:21;;;;;;;2.28;1.17;;;;;;;25.21;27.42;101704.09;5051378;28;20367;-69
2022/08/09 10:45:46;;;;;;;2.08;1.17;;;;;;;25.26;27.29;101701.47;5052163;28;20052;-69
2022/08/09 10:48:34;;;;;;;1.00;0.88;;;;;;;25.29;27.03;101703.69;5052418;28;20091;-68
2022/08/09 10:51:08;;;;;;;1.50;1.13;;;;;;;25.26;27.05;101701.47;5055519;28;20035;-68
2022/08/09 10:53:58;;;;;;;1.20;0.85;;;;;;;25.30;26.98;101701.78;5055225;28;20028;-65
2022/08/09 10:56:26;;;;;;;1.10;0.80;;;;;;;25.23;27.00;101696.50;5056760;28;20029;-66
2022/08/09 10:58:52;;;;;;;1.35;1.13;;;;;;;25.26;27.19;101690.50;5056459;28;20029;-67
2022/08/09 11:01:34;;;;;;;1.08;0.82;;;;;;;25.29;26.88;101695.47;5057415;28;20106;-65
2022/08/09 11:04:08;;;;;;;1.02;0.73;;;;;;;25.31;27.14;101695.22;5064002;28;20036;-65
2022/08/09 11:06:37;;;;;;;1.35;0.80;;;;;;;25.28;27.08;101699.31;5076636;28;20108;-67
2022/08/09 11:09:03;;;;;;;1.80;0.65;;;;;;;25.33;26.97;101686.78;5076279;28;20090;-67
2022/08/09 11:11:57;;;;;;;1.30;0.88;;;;;;;25.35;26.55;101687.34;5076141;28;20055;-66
2022/08/09 11:14:40;;;;;;;1.43;0.97;;;;;;;25.35;27.02;101681.88;5076166;28;20035;-66
2022/08/09 11:17:12;;;;;;;0.73;0.73;;;;;;;25.34;26.75;101682.97;5076463;28;20048;-67
2022/08/09 11:19:57;;;;;;;0.75;0.70;;;;;;;25.32;26.63;101685.09;5076417;28;20032;-67
2022/08/09 11:22:44;;;;;;;2.30;0.60;;;;;;;25.31;27.01;101676.09;5076967;28;20020;-67
2022/08/09 11:25:20;;;;;;;1.10;0.80;;;;;;;25.36;26.80;101678.88;5076823;28;20032;-67